Time;durP1;ratioP1;P1;durP2;ratioP2;P2;SDS_P1;SDS_P2;PMS_P1;PMS_P2;Temp;Humidity;BMP_temperature;BMP_pressure;BME280_temperature;BME280_humidity;BME280_pressure;Samples;Min_cycle;Max_cycle;Signal;HPM_P1;HPM_P2
2021/01/21 00:00:37;;;;;;;8.32;4.75;;;;;;;;;;5053162;28;20107;-65
2021/01/21 00:03:03;;;;;;;9.98;4.60;;;;;;;;;;5053418;28;20491;-66
2021/01/21 00:05:29;;;;;;;12.00;5.47;;;;;;;;;;5053441;28;20029;-64
2021/01/21 00:07:55;;;;;;;39.33;21.70;;;;;;;;;;5053582;28;20176;-64
2021/01/21 00:10:22;;;;;;;45.47;23.48;;;;;;;;;;5053567;28;20021;-65
2021/01/21 00:12:48;;;;;;;55.45;28.63;;;;;;;;;;5054035;28;20017;-65
2021/01/21 00:15:14;;;;;;;62.40;30.95;;;;;;;;;;5053051;28;20094;-66
2021/01/21 00:17:40;;;;;;;55.30;28.63;;;;;;;;;;5054101;28;20029;-65
2021/01/21 00:20:06;;;;;;;45.95;25.00;;;;;;;;;;5053499;28;20021;-66
2021/01/21 00:22:32;;;;;;;42.83;22.55;;;;;;;;;;5053088;28;20175;-65
2021/01/21 00:24:59;;;;;;;48.25;23.33;;;;;;;;;;5053283;28;20064;-65
2021/01/21 00:27:25;;;;;;;46.60;23.83;;;;;;;;;;5053492;28;20021;-65
2021/01/21 00:29:51;;;;;;;42.25;22.63;;;;;;;;;;5053400;28;20453;-65
2021/01/21 00:32:17;;;;;;;39.35;20.45;;;;;;;;;;5053782;28;20029;-65
2021/01/21 00:34:43;;;;;;;36.80;19.60;;;;;;;;;;5053624;28;20029;-64
2021/01/21 00:37:09;;;;;;;38.95;21.08;;;;;;;;;;5053507;28;20029;-65
2021/01/21 00:39:35;;;;;;;34.63;18.55;;;;;;;;;;5053418;28;20060;-65
2021/01/21 00:42:01;;;;;;;33.90;17.08;;;;;;;;;;5053423;28;20029;-64
2021/01/21 00:44:27;;;;;;;35.88;17.55;;;;;;;;;;5053078;28;20025;-65
2021/01/21 00:46:53;;;;;;;32.08;15.88;;;;;;;;;;5053105;28;20032;-65
2021/01/21 00:49:19;;;;;;;39.10;18.25;;;;;;;;;;5053050;28;20521;-64
2021/01/21 00:51:45;;;;;;;35.92;19.73;;;;;;;;;;5053376;28;20376;-65
2021/01/21 00:54:11;;;;;;;30.85;17.42;;;;;;;;;;5053368;28;20029;-64
2021/01/21 00:56:37;;;;;;;34.30;17.58;;;;;;;;;;5052794;28;20064;-64
2021/01/21 00:59:03;;;;;;;36.30;18.45;;;;;;;;;;5052960;28;20028;-65
2021/01/21 01:01:29;;;;;;;33.05;17.17;;;;;;;;;;5054541;28;20473;-65
2021/01/21 01:03:55;;;;;;;33.35;17.60;;;;;;;;;;5056701;28;20385;-65
2021/01/21 01:06:22;;;;;;;31.58;17.33;;;;;;;;;;5055649;28;20025;-65
2021/01/21 01:08:48;;;;;;;30.88;16.75;;;;;;;;;;5056650;28;20029;-65
2021/01/21 01:11:14;;;;;;;28.20;15.68;;;;;;;;;;5056363;28;20361;-65
2021/01/21 01:13:40;;;;;;;29.27;15.82;;;;;;;;;;5056462;28;20044;-64
2021/01/21 01:16:06;;;;;;;26.30;14.02;;;;;;;;;;5057013;28;20520;-65
2021/01/21 01:18:32;;;;;;;25.65;12.02;;;;;;;;;;5056075;28;20365;-65
2021/01/21 01:20:58;;;;;;;25.08;13.68;;;;;;;;;;5056680;28;20052;-65
2021/01/21 01:23:24;;;;;;;19.88;11.45;;;;;;;;;;5056540;28;20448;-65
2021/01/21 01:25:53;;;;;;;21.67;11.88;;;;;;;;;;5056231;28;20098;-65
2021/01/21 01:28:19;;;;;;;19.73;10.70;;;;;;;;;;5056631;28;20029;-65
2021/01/21 01:30:45;;;;;;;22.35;11.73;;;;;;;;;;5056481;28;20060;-64
2021/01/21 01:33:11;;;;;;;20.92;11.52;;;;;;;;;;5056117;28;20056;-65
2021/01/21 01:35:37;;;;;;;21.42;11.73;;;;;;;;;;5056508;28;20504;-65
2021/01/21 01:38:03;;;;;;;22.27;12.15;;;;;;;;;;5056606;28;20029;-65
2021/01/21 01:40:29;;;;;;;27.90;13.30;;;;;;;;;;5055960;28;20029;-65
2021/01/21 01:42:56;;;;;;;22.38;12.88;;;;;;;;;;5056479;28;20115;-65
2021/01/21 01:45:22;;;;;;;18.02;10.73;;;;;;;;;;5055569;28;20465;-65
2021/01/21 01:47:48;;;;;;;18.95;10.68;;;;;;;;;;5056129;28;20114;-65
2021/01/21 01:50:15;;;;;;;17.88;9.93;;;;;;;;;;5055825;28;20025;-65
2021/01/21 01:52:41;;;;;;;15.60;8.95;;;;;;;;;;5055718;28;20150;-65
2021/01/21 01:55:17;;;;;;;18.08;9.70;;;;;;;;;;5056101;28;20032;-65
2021/01/21 01:57:44;;;;;;;16.73;9.27;;;;;;;;;;5055920;28;20025;-65
2021/01/21 02:00:10;;;;;;;17.85;8.90;;;;;;;;;;5055816;28;20025;-65
2021/01/21 02:02:37;;;;;;;22.42;10.93;;;;;;;;;;5055889;28;20431;-65
2021/01/21 02:05:03;;;;;;;20.65;10.55;;;;;;;;;;5055886;28;20366;-65
2021/01/21 02:07:29;;;;;;;23.88;12.05;;;;;;;;;;5055252;28;20017;-65
2021/01/21 02:09:56;;;;;;;22.85;11.60;;;;;;;;;;5054568;28;20021;-65
2021/01/21 02:12:22;;;;;;;19.27;11.23;;;;;;;;;;5055589;28;20021;-65
2021/01/21 02:14:57;;;;;;;20.90;12.48;;;;;;;;;;5055489;28;20080;-65
2021/01/21 02:17:33;;;;;;;23.20;13.40;;;;;;;;;;5055977;28;20028;-66
2021/01/21 02:20:17;;;;;;;24.67;13.75;;;;;;;;;;5055583;28;20018;-64
2021/01/21 02:23:05;;;;;;;22.13;12.38;;;;;;;;;;5055890;28;20029;-64
2021/01/21 02:25:50;;;;;;;24.60;13.05;;;;;;;;;;5055283;28;20032;-64
2021/01/21 02:28:22;;;;;;;19.77;10.93;;;;;;;;;;5055206;28;20487;-64
2021/01/21 02:30:54;;;;;;;19.85;11.50;;;;;;;;;;5055380;28;20028;-65
2021/01/21 02:33:29;;;;;;;19.63;11.27;;;;;;;;;;5055042;28;20025;-65
2021/01/21 02:35:58;;;;;;;23.02;12.63;;;;;;;;;;5054962;28;20033;-65
2021/01/21 02:38:26;;;;;;;20.20;9.98;;;;;;;;;;5055195;28;20079;-65
2021/01/21 02:40:52;;;;;;;22.38;12.30;;;;;;;;;;5055158;28;20057;-65
2021/01/21 02:43:18;;;;;;;24.60;12.93;;;;;;;;;;5054816;28;20021;-65
2021/01/21 02:45:44;;;;;;;24.90;12.88;;;;;;;;;;5054788;28;20041;-64
2021/01/21 02:48:11;;;;;;;26.00;13.23;;;;;;;;;;5054707;28;20029;-65
2021/01/21 02:50:38;;;;;;;19.52;10.07;;;;;;;;;;5055252;28;20029;-65
2021/01/21 02:53:05;;;;;;;17.77;9.05;;;;;;;;;;5054872;28;20514;-65
2021/01/21 02:55:34;;;;;;;13.63;7.20;;;;;;;;;;5054425;28;20033;-65
2021/01/21 02:58:07;;;;;;;19.30;8.10;;;;;;;;;;5053534;28;20431;-65
2021/01/21 03:00:35;;;;;;;15.30;7.07;;;;;;;;;;5055386;28;20052;-64
2021/01/21 03:03:01;;;;;;;16.98;7.65;;;;;;;;;;5054580;28;20025;-65
2021/01/21 03:05:28;;;;;;;11.57;5.40;;;;;;;;;;5054709;28;20110;-65
2021/01/21 03:07:55;;;;;;;14.52;6.63;;;;;;;;;;5054683;28;20446;-66
2021/01/21 03:10:22;;;;;;;14.73;5.82;;;;;;;;;;5054301;28;20055;-65
2021/01/21 03:12:58;;;;;;;8.95;3.60;;;;;;;;;;5054568;28;20109;-65
2021/01/21 03:15:24;;;;;;;8.45;3.03;;;;;;;;;;5054146;28;20217;-65
2021/01/21 03:17:50;;;;;;;6.18;2.40;;;;;;;;;;5053917;28;20024;-65
2021/01/21 03:20:17;;;;;;;5.60;2.28;;;;;;;;;;5054639;28;20048;-65
2021/01/21 03:22:43;;;;;;;10.52;5.80;;;;;;;;;;5054329;28;20025;-65
2021/01/21 03:25:09;;;;;;;17.67;9.73;;;;;;;;;;5053345;28;20534;-65
2021/01/21 03:27:36;;;;;;;16.30;9.38;;;;;;;;;;5054840;28;20037;-65
2021/01/21 03:30:02;;;;;;;15.73;8.82;;;;;;;;;;5054279;28;20025;-65
2021/01/21 03:32:28;;;;;;;17.58;8.88;;;;;;;;;;5053505;28;20032;-65
2021/01/21 03:34:54;;;;;;;12.85;6.93;;;;;;;;;;5054192;28;20037;-65
2021/01/21 03:37:20;;;;;;;15.90;8.32;;;;;;;;;;5053683;28;20465;-65
2021/01/21 03:39:46;;;;;;;12.68;6.38;;;;;;;;;;5054015;28;20052;-65
2021/01/21 03:42:12;;;;;;;5.32;2.83;;;;;;;;;;5053972;28;20053;-65
2021/01/21 03:44:38;;;;;;;6.68;3.70;;;;;;;;;;5053625;28;20024;-65
2021/01/21 03:47:05;;;;;;;9.57;4.35;;;;;;;;;;5054221;28;20032;-65
2021/01/21 03:49:33;;;;;;;5.47;2.95;;;;;;;;;;5053944;28;20025;-64
2021/01/21 03:51:59;;;;;;;8.30;3.83;;;;;;;;;;5053303;28;20029;-64
2021/01/21 03:54:25;;;;;;;6.68;3.05;;;;;;;;;;5053745;28;20033;-64
2021/01/21 03:56:51;;;;;;;8.95;3.38;;;;;;;;;;5053425;28;20021;-64
2021/01/21 03:59:17;;;;;;;13.80;4.88;;;;;;;;;;5053230;28;20052;-65
2021/01/21 04:01:43;;;;;;;6.78;2.95;;;;;;;;;;5054034;28;20021;-64
2021/01/21 04:04:09;;;;;;;5.30;2.58;;;;;;;;;;5053737;28;20052;-64
2021/01/21 04:06:36;;;;;;;9.32;3.35;;;;;;;;;;5053413;28;20043;-65
2021/01/21 04:09:02;;;;;;;9.60;4.47;;;;;;;;;;5053637;28;20068;-64
2021/01/21 04:11:28;;;;;;;14.65;5.43;;;;;;;;;;5053723;28;20490;-65
2021/01/21 04:13:54;;;;;;;9.15;3.72;;;;;;;;;;5052754;28;20074;-64
2021/01/21 04:16:20;;;;;;;12.15;3.40;;;;;;;;;;5052829;28;20419;-64
2021/01/21 04:18:46;;;;;;;9.02;3.70;;;;;;;;;;5053288;28;20025;-64
2021/01/21 04:21:12;;;;;;;13.55;5.32;;;;;;;;;;5052812;28;20480;-64
2021/01/21 04:23:38;;;;;;;12.23;4.75;;;;;;;;;;5053259;28;20029;-64
2021/01/21 04:26:05;;;;;;;8.65;3.95;;;;;;;;;;5053469;28;20029;-63
2021/01/21 04:28:31;;;;;;;15.02;5.57;;;;;;;;;;5053025;28;20025;-64
2021/01/21 04:30:57;;;;;;;10.98;3.90;;;;;;;;;;5053715;28;20041;-65
2021/01/21 04:33:23;;;;;;;12.68;4.45;;;;;;;;;;5053051;28;20021;-64
2021/01/21 04:35:49;;;;;;;7.85;3.20;;;;;;;;;;5053694;28;20431;-64
2021/01/21 04:38:15;;;;;;;9.43;3.40;;;;;;;;;;5057174;28;20371;-64
2021/01/21 04:40:41;;;;;;;8.82;3.58;;;;;;;;;;5057302;28;20048;-64
2021/01/21 04:43:08;;;;;;;13.10;5.18;;;;;;;;;;5057116;28;20055;-64
2021/01/21 04:45:34;;;;;;;6.78;3.17;;;;;;;;;;5057094;28;20108;-64
2021/01/21 04:48:00;;;;;;;5.28;2.42;;;;;;;;;;5056999;28;20029;-64
2021/01/21 04:50:27;;;;;;;6.38;2.42;;;;;;;;;;5057290;28;20017;-64
2021/01/21 04:52:54;;;;;;;6.38;2.90;;;;;;;;;;5056863;28;20025;-64
2021/01/21 04:55:27;;;;;;;10.93;4.00;;;;;;;;;;5056465;28;20036;-64
2021/01/21 04:58:02;;;;;;;7.80;3.13;;;;;;;;;;5057343;28;20032;-64
2021/01/21 05:00:30;;;;;;;9.25;4.10;;;;;;;;;;5056807;28;20029;-64
2021/01/21 05:02:57;;;;;;;6.32;3.08;;;;;;;;;;5056688;28;20107;-64
2021/01/21 05:05:23;;;;;;;9.43;4.43;;;;;;;;;;5056672;28;20159;-65
2021/01/21 05:07:49;;;;;;;10.20;5.68;;;;;;;;;;5056905;28;20158;-65
2021/01/21 05:10:17;;;;;;;11.45;5.90;;;;;;;;;;5056608;28;20064;-64
2021/01/21 05:12:43;;;;;;;15.38;8.95;;;;;;;;;;5056578;28;20018;-65
2021/01/21 05:15:09;;;;;;;16.15;9.30;;;;;;;;;;5054963;28;20428;-64
2021/01/21 05:17:36;;;;;;;13.27;6.47;;;;;;;;;;5056391;28;20109;-64
2021/01/21 05:20:02;;;;;;;10.68;6.78;;;;;;;;;;5056625;28;20020;-63
2021/01/21 05:22:28;;;;;;;12.43;6.32;;;;;;;;;;5056333;28;20345;-64
2021/01/21 05:24:55;;;;;;;18.42;8.38;;;;;;;;;;5056370;28;20095;-65
2021/01/21 05:27:21;;;;;;;10.30;5.32;;;;;;;;;;5057046;28;20017;-64
2021/01/21 05:29:48;;;;;;;9.32;4.85;;;;;;;;;;5056422;28;20033;-63
2021/01/21 05:32:15;;;;;;;12.10;6.13;;;;;;;;;;5056130;28;20086;-65
2021/01/21 05:34:41;;;;;;;13.88;6.82;;;;;;;;;;5056837;28;20033;-65
2021/01/21 05:37:09;;;;;;;16.50;6.93;;;;;;;;;;5056083;28;20036;-65
2021/01/21 05:39:36;;;;;;;15.02;6.57;;;;;;;;;;5056016;28;20100;-64
2021/01/21 05:42:03;;;;;;;22.23;9.57;;;;;;;;;;5056258;28;20523;-64
2021/01/21 05:44:30;;;;;;;31.10;14.95;;;;;;;;;;5055938;28;20495;-65
2021/01/21 05:46:56;;;;;;;38.90;18.98;;;;;;;;;;5055749;28;20338;-64
2021/01/21 05:49:26;;;;;;;27.48;14.18;;;;;;;;;;5056337;28;20027;-65
2021/01/21 05:51:52;;;;;;;22.75;12.00;;;;;;;;;;5055864;28;20021;-64
2021/01/21 05:54:18;;;;;;;29.58;14.70;;;;;;;;;;5055926;28;20040;-64
2021/01/21 05:56:45;;;;;;;23.73;13.45;;;;;;;;;;5055636;28;20029;-65
2021/01/21 05:59:11;;;;;;;18.23;10.15;;;;;;;;;;5055316;28;20104;-65
2021/01/21 06:01:37;;;;;;;12.57;6.63;;;;;;;;;;5055908;28;20036;-65
2021/01/21 06:04:05;;;;;;;11.85;5.82;;;;;;;;;;5055837;28;20427;-66
2021/01/21 06:06:31;;;;;;;22.00;10.77;;;;;;;;;;5055595;28;20115;-64
2021/01/21 06:08:57;;;;;;;18.95;8.27;;;;;;;;;;5056113;28;20025;-65
2021/01/21 06:11:23;;;;;;;15.57;7.40;;;;;;;;;;5055805;28;20468;-65
2021/01/21 06:13:49;;;;;;;22.33;10.68;;;;;;;;;;5055085;28;20025;-66
2021/01/21 06:16:15;;;;;;;39.22;19.45;;;;;;;;;;5056057;28;20037;-65
2021/01/21 06:18:42;;;;;;;21.38;9.43;;;;;;;;;;5055251;28;20023;-65
2021/01/21 06:21:10;;;;;;;21.38;10.60;;;;;;;;;;5055785;28;20541;-65
2021/01/21 06:23:38;;;;;;;26.08;13.57;;;;;;;;;;5055474;28;20032;-65
2021/01/21 06:26:04;;;;;;;30.92;15.07;;;;;;;;;;5055660;28;20020;-65
2021/01/21 06:28:31;;;;;;;14.40;7.10;;;;;;;;;;5055093;28;20380;-64
2021/01/21 06:30:58;;;;;;;11.68;6.05;;;;;;;;;;5026574;28;20110;-65
2021/01/21 06:33:27;;;;;;;13.23;6.97;;;;;;;;;;5015601;28;20501;-64
2021/01/21 06:36:01;;;;;;;18.58;7.90;;;;;;;;;;5043342;28;20173;-64
2021/01/21 06:38:30;;;;;;;20.65;10.20;;;;;;;;;;5043652;28;20028;-64
2021/01/21 06:40:58;;;;;;;25.42;12.80;;;;;;;;;;5040378;28;20107;-64
2021/01/21 06:43:28;;;;;;;27.30;12.93;;;;;;;;;;5034840;28;20022;-64
2021/01/21 06:45:57;;;;;;;25.88;12.85;;;;;;;;;;5035094;28;20033;-64
2021/01/21 06:48:24;;;;;;;29.83;16.40;;;;;;;;;;5035126;28;20029;-64
2021/01/21 06:50:51;;;;;;;27.33;13.60;;;;;;;;;;5034378;28;20428;-64
2021/01/21 06:53:17;;;;;;;44.67;19.88;;;;;;;;;;5037756;28;20025;-67
2021/01/21 06:55:47;;;;;;;40.05;19.45;;;;;;;;;;5015326;28;20041;-64
2021/01/21 06:58:13;;;;;;;40.38;20.15;;;;;;;;;;5012946;28;20040;-64
2021/01/21 07:00:46;;;;;;;39.85;21.35;;;;;;;;;;5013139;28;20025;-64
2021/01/21 07:03:28;;;;;;;38.97;20.45;;;;;;;;;;5013189;28;20030;-66
2021/01/21 07:06:00;;;;;;;37.60;18.50;;;;;;;;;;5012674;28;20181;-65
2021/01/21 07:08:27;;;;;;;45.40;21.98;;;;;;;;;;5013488;28;20029;-65
2021/01/21 07:10:58;;;;;;;54.60;25.05;;;;;;;;;;5013113;28;20026;-66
2021/01/21 07:13:24;;;;;;;58.10;27.13;;;;;;;;;;5012756;28;20026;-66
2021/01/21 07:15:59;;;;;;;51.08;24.77;;;;;;;;;;5029050;28;20073;-67
2021/01/21 07:18:30;;;;;;;44.50;22.27;;;;;;;;;;5040972;28;20700;-65
2021/01/21 07:21:18;;;;;;;49.90;24.48;;;;;;;;;;5042518;28;20032;-66
2021/01/21 07:23:48;;;;;;;46.88;23.25;;;;;;;;;;5047727;28;20033;-64
2021/01/21 07:26:21;;;;;;;48.72;23.80;;;;;;;;;;5038725;28;20048;-66
2021/01/21 07:28:51;;;;;;;50.85;24.23;;;;;;;;;;5042742;28;20346;-66
2021/01/21 07:31:17;;;;;;;48.90;23.75;;;;;;;;;;5035673;28;20025;-66
2021/01/21 07:33:43;;;;;;;49.58;24.25;;;;;;;;;;5036723;28;20071;-66
2021/01/21 07:36:28;;;;;;;48.13;23.48;;;;;;;;;;5043068;28;20029;-66
2021/01/21 07:38:54;;;;;;;46.60;22.88;;;;;;;;;;5043103;28;20025;-65
2021/01/21 07:41:39;;;;;;;45.72;21.42;;;;;;;;;;5042780;28;20033;-66
2021/01/21 07:44:05;;;;;;;41.35;20.30;;;;;;;;;;5052137;28;20025;-66
2021/01/21 07:46:31;;;;;;;38.10;19.15;;;;;;;;;;5052772;28;20384;-67
2021/01/21 07:49:16;;;;;;;40.80;19.98;;;;;;;;;;5053547;28;20031;-66
2021/01/21 07:51:42;;;;;;;46.85;23.70;;;;;;;;;;5046349;28;20109;-65
2021/01/21 07:54:08;;;;;;;51.78;25.55;;;;;;;;;;5033668;28;20024;-65
2021/01/21 07:56:34;;;;;;;46.95;22.65;;;;;;;;;;5033692;28;20129;-64
2021/01/21 07:59:01;;;;;;;46.03;22.25;;;;;;;;;;5033509;28;20057;-64
2021/01/21 08:01:27;;;;;;;43.65;21.90;;;;;;;;;;5036059;28;20036;-64
2021/01/21 08:03:53;;;;;;;38.13;19.02;;;;;;;;;;5039555;28;20029;-65
2021/01/21 08:06:22;;;;;;;39.95;19.15;;;;;;;;;;5050293;28;20017;-63
2021/01/21 08:08:51;;;;;;;37.38;18.95;;;;;;;;;;5041460;28;20099;-65
2021/01/21 08:11:18;;;;;;;41.92;22.58;;;;;;;;;;5037969;28;20021;-66
2021/01/21 08:13:46;;;;;;;49.00;24.00;;;;;;;;;;5045583;28;20022;-64
2021/01/21 08:16:13;;;;;;;50.22;24.55;;;;;;;;;;5034357;28;20069;-65
2021/01/21 08:18:39;;;;;;;39.35;20.83;;;;;;;;;;5033520;28;20151;-66
2021/01/21 08:21:18;;;;;;;31.00;16.75;;;;;;;;;;5033365;28;20021;-64
2021/01/21 08:23:51;;;;;;;20.05;11.68;;;;;;;;;;5033267;28;20064;-64
2021/01/21 08:26:17;;;;;;;21.50;11.13;;;;;;;;;;5033549;28;20048;-64
2021/01/21 08:28:44;;;;;;;17.80;10.30;;;;;;;;;;5042479;28;20063;-65
2021/01/21 08:31:10;;;;;;;14.32;8.52;;;;;;;;;;5042197;28;20033;-66
2021/01/21 08:33:38;;;;;;;14.68;8.60;;;;;;;;;;5032204;28;20032;-64
2021/01/21 08:36:08;;;;;;;12.85;8.55;;;;;;;;;;5037886;28;20036;-65
2021/01/21 08:38:40;;;;;;;12.10;7.75;;;;;;;;;;5032497;28;20025;-64
2021/01/21 08:41:06;;;;;;;;;;;;;;;;;;5033511;28;20036;-64
2021/01/21 08:43:32;;;;;;;17.15;10.02;;;;;;;;;;5051391;28;20330;-64
2021/01/21 08:45:58;;;;;;;15.50;8.73;;;;;;;;;;5048407;28;20032;-65
2021/01/21 08:48:28;;;;;;;18.63;8.88;;;;;;;;;;5036792;28;20033;-65
2021/01/21 08:50:54;;;;;;;20.13;10.75;;;;;;;;;;5027391;28;20083;-65
2021/01/21 08:53:24;;;;;;;16.05;9.35;;;;;;;;;;5029120;28;20465;-65
2021/01/21 08:55:51;;;;;;;20.15;10.40;;;;;;;;;;5030742;28;20035;-65
2021/01/21 08:58:18;;;;;;;16.50;9.85;;;;;;;;;;5030874;28;20525;-65
2021/01/21 09:01:04;;;;;;;17.83;10.30;;;;;;;;;;5030257;28;20029;-65
2021/01/21 09:03:36;;;;;;;16.20;9.80;;;;;;;;;;5029879;28;20049;-66
2021/01/21 09:06:02;;;;;;;15.20;8.40;;;;;;;;;;5031457;28;20041;-65
2021/01/21 09:08:29;;;;;;;17.88;10.02;;;;;;;;;;5031665;28;20104;-66
2021/01/21 09:10:58;;;;;;;20.90;11.77;;;;;;;;;;5030779;28;20025;-67
2021/01/21 09:13:24;;;;;;;20.98;12.32;;;;;;;;;;5031733;28;20072;-65
2021/01/21 09:15:58;;;;;;;26.40;12.55;;;;;;;;;;5031749;28;20041;-64
2021/01/21 09:18:25;;;;;;;25.08;12.82;;;;;;;;;;5031682;28;20104;-66
2021/01/21 09:20:51;;;;;;;23.00;12.63;;;;;;;;;;5031212;28;20551;-65
2021/01/21 09:23:20;;;;;;;26.08;13.55;;;;;;;;;;5034020;28;20109;-66
2021/01/21 09:25:48;;;;;;;27.92;14.02;;;;;;;;;;5031049;28;20104;-65
2021/01/21 09:28:14;;;;;;;29.08;14.20;;;;;;;;;;5034224;28;20097;-65
2021/01/21 09:30:41;;;;;;;26.55;13.40;;;;;;;;;;5034495;28;20541;-65
2021/01/21 09:33:07;;;;;;;20.50;11.38;;;;;;;;;;5033842;28;20026;-66
2021/01/21 09:35:33;;;;;;;19.75;10.77;;;;;;;;;;5034628;28;20033;-63
2021/01/21 09:38:00;;;;;;;17.73;9.85;;;;;;;;;;5034396;28;20021;-67
2021/01/21 09:40:27;;;;;;;18.52;9.75;;;;;;;;;;5033717;28;20440;-67
2021/01/21 09:42:57;;;;;;;21.92;9.82;;;;;;;;;;5035156;28;20453;-65
2021/01/21 09:45:25;;;;;;;15.27;9.30;;;;;;;;;;5032991;28;20408;-66
2021/01/21 09:47:52;;;;;;;17.35;9.70;;;;;;;;;;5031597;28;20024;-65
2021/01/21 09:50:19;;;;;;;19.48;10.30;;;;;;;;;;5034036;28;20030;-65
2021/01/21 09:52:45;;;;;;;17.17;9.30;;;;;;;;;;5033962;28;20075;-65
2021/01/21 09:55:12;;;;;;;20.23;10.60;;;;;;;;;;5033428;28;20029;-65
2021/01/21 09:57:39;;;;;;;17.77;10.07;;;;;;;;;;5034497;28;20068;-66
2021/01/21 10:00:06;;;;;;;18.70;10.52;;;;;;;;;;5035346;28;20120;-66
2021/01/21 10:02:32;;;;;;;17.60;9.70;;;;;;;;;;5033584;28;20029;-64
2021/01/21 10:04:58;;;;;;;15.30;9.30;;;;;;;;;;5034822;28;20037;-66
2021/01/21 10:07:24;;;;;;;17.65;10.07;;;;;;;;;;5034130;28;20531;-66
2021/01/21 10:09:50;;;;;;;15.57;9.27;;;;;;;;;;5033393;28;20040;-66
2021/01/21 10:12:16;;;;;;;14.13;9.52;;;;;;;;;;5035406;28;20044;-65
2021/01/21 10:14:43;;;;;;;17.55;9.27;;;;;;;;;;5034816;28;20125;-68
2021/01/21 10:17:09;;;;;;;15.05;8.55;;;;;;;;;;5040006;28;20025;-66
2021/01/21 10:19:36;;;;;;;16.70;9.50;;;;;;;;;;5044906;28;20021;-66
2021/01/21 10:22:02;;;;;;;18.27;9.90;;;;;;;;;;5043616;28;20078;-67
2021/01/21 10:24:28;;;;;;;16.73;9.65;;;;;;;;;;5045459;28;20023;-66
2021/01/21 10:26:55;;;;;;;15.73;9.18;;;;;;;;;;5044078;28;20021;-67
2021/01/21 10:29:21;;;;;;;15.80;8.20;;;;;;;;;;5038415;28;20025;-66
2021/01/21 10:31:47;;;;;;;15.40;8.48;;;;;;;;;;5035872;28;20025;-68
2021/01/21 10:34:13;;;;;;;14.18;6.85;;;;;;;;;;5037528;28;20032;-69
2021/01/21 10:36:39;;;;;;;13.57;7.50;;;;;;;;;;5046492;28;20094;-67
2021/01/21 10:39:06;;;;;;;14.77;7.82;;;;;;;;;;5043322;28;20075;-66
2021/01/21 10:41:32;;;;;;;14.13;7.80;;;;;;;;;;5044234;28;20017;-67
2021/01/21 10:43:58;;;;;;;13.85;8.13;;;;;;;;;;5034298;28;20478;-70
2021/01/21 10:46:24;;;;;;;12.40;7.20;;;;;;;;;;5032928;28;20041;-66
2021/01/21 10:48:51;;;;;;;14.18;7.82;;;;;;;;;;5033286;28;20380;-69
2021/01/21 10:51:17;;;;;;;13.88;7.50;;;;;;;;;;5034635;28;20028;-65
2021/01/21 10:53:43;;;;;;;19.25;8.75;;;;;;;;;;5039744;28;20020;-66
2021/01/21 10:56:09;;;;;;;22.33;10.23;;;;;;;;;;5045780;28;20037;-67
2021/01/21 10:58:35;;;;;;;21.23;9.15;;;;;;;;;;5054110;28;20464;-66
2021/01/21 11:01:01;;;;;;;18.02;8.32;;;;;;;;;;5053911;28;20061;-67
2021/01/21 11:03:27;;;;;;;15.77;8.35;;;;;;;;;;5053511;28;20063;-67
2021/01/21 11:05:53;;;;;;;14.45;7.45;;;;;;;;;;5054379;28;20124;-66
2021/01/21 11:08:19;;;;;;;17.23;9.02;;;;;;;;;;5054314;28;20025;-68
2021/01/21 11:10:46;;;;;;;14.48;7.75;;;;;;;;;;5043748;28;20025;-65
2021/01/21 11:13:17;;;;;;;18.30;8.88;;;;;;;;;;5033831;28;20033;-66
2021/01/21 11:15:44;;;;;;;11.43;6.43;;;;;;;;;;5035556;28;20503;-67
2021/01/21 11:18:10;;;;;;;15.90;9.00;;;;;;;;;;5051774;28;20064;-66
2021/01/21 11:20:36;;;;;;;18.27;8.77;;;;;;;;;;5047673;28;20103;-66
2021/01/21 11:23:02;;;;;;;18.63;9.68;;;;;;;;;;5040478;28;20358;-66
2021/01/21 11:25:29;;;;;;;16.42;9.02;;;;;;;;;;5041067;28;20029;-65
2021/01/21 11:27:55;;;;;;;15.55;8.68;;;;;;;;;;5053510;28;20115;-66
2021/01/21 11:30:21;;;;;;;17.23;9.40;;;;;;;;;;5053116;28;20372;-65
2021/01/21 11:32:47;;;;;;;15.02;9.00;;;;;;;;;;5053146;28;20464;-66
2021/01/21 11:35:13;;;;;;;17.13;9.25;;;;;;;;;;5053638;28;20533;-66
2021/01/21 11:37:39;;;;;;;19.40;10.07;;;;;;;;;;5052775;28;20044;-65
2021/01/21 11:40:06;;;;;;;18.13;10.48;;;;;;;;;;5049538;28;20706;-64
2021/01/21 11:42:32;;;;;;;20.00;9.32;;;;;;;;;;5014059;28;20377;-65
2021/01/21 11:45:01;;;;;;;14.98;9.30;;;;;;;;;;5013186;28;20025;-64
2021/01/21 11:47:28;;;;;;;14.00;8.27;;;;;;;;;;5013244;28;20112;-65
2021/01/21 11:49:54;;;;;;;14.80;8.30;;;;;;;;;;5037218;28;20104;-65
2021/01/21 11:52:21;;;;;;;13.45;7.53;;;;;;;;;;5036548;28;20026;-67
2021/01/21 11:54:47;;;;;;;16.83;9.00;;;;;;;;;;5044225;28;20037;-65
2021/01/21 11:57:13;;;;;;;17.55;8.68;;;;;;;;;;5043419;28;20068;-63
2021/01/21 11:59:39;;;;;;;16.13;9.38;;;;;;;;;;5032856;28;20024;-67
2021/01/21 12:02:05;;;;;;;14.70;8.23;;;;;;;;;;5037000;28;20033;-64
2021/01/21 12:04:31;;;;;;;14.55;8.40;;;;;;;;;;5033122;28;20025;-62
2021/01/21 12:06:57;;;;;;;15.10;8.93;;;;;;;;;;5034039;28;20026;-66
2021/01/21 12:09:23;;;;;;;17.60;9.00;;;;;;;;;;5043358;28;20021;-65
2021/01/21 12:11:49;;;;;;;15.85;9.63;;;;;;;;;;5040544;28;20081;-65
2021/01/21 12:14:15;;;;;;;19.83;10.02;;;;;;;;;;5033142;28;20045;-64
2021/01/21 12:16:43;;;;;;;14.75;9.27;;;;;;;;;;5031575;28;20041;-65
2021/01/21 12:19:09;;;;;;;16.40;9.38;;;;;;;;;;5039839;28;20055;-65
2021/01/21 12:21:35;;;;;;;15.63;9.50;;;;;;;;;;5043318;28;20025;-65
2021/01/21 12:24:01;;;;;;;18.20;10.10;;;;;;;;;;5040731;28;20017;-66
2021/01/21 12:26:29;;;;;;;21.02;9.60;;;;;;;;;;5042084;28;20021;-66
2021/01/21 12:28:55;;;;;;;19.02;10.40;;;;;;;;;;5042788;28;20100;-66
2021/01/21 12:31:21;;;;;;;20.45;9.55;;;;;;;;;;5041238;28;20032;-66
2021/01/21 12:33:48;;;;;;;19.55;9.98;;;;;;;;;;5041638;28;20013;-69
2021/01/21 12:36:14;;;;;;;17.95;9.77;;;;;;;;;;5031438;28;20029;-66
2021/01/21 12:38:40;;;;;;;15.45;9.00;;;;;;;;;;5031017;28;20425;-65
2021/01/21 12:41:06;;;;;;;16.60;9.60;;;;;;;;;;5033536;28;20103;-66
2021/01/21 12:43:32;;;;;;;16.23;9.30;;;;;;;;;;5035454;28;20019;-66
2021/01/21 12:45:58;;;;;;;16.10;9.35;;;;;;;;;;5034839;28;20040;-65
2021/01/21 12:48:25;;;;;;;16.88;9.00;;;;;;;;;;5032010;28;20076;-66
2021/01/21 12:50:51;;;;;;;19.35;8.95;;;;;;;;;;5035388;28;20072;-67
2021/01/21 12:53:17;;;;;;;16.92;8.82;;;;;;;;;;5046626;28;20424;-65
2021/01/21 12:55:43;;;;;;;15.07;8.88;;;;;;;;;;5034375;28;20114;-66
2021/01/21 12:58:09;;;;;;;16.88;9.02;;;;;;;;;;5034980;28;20496;-65
2021/01/21 13:00:35;;;;;;;15.40;8.27;;;;;;;;;;5047822;28;20038;-64
2021/01/21 13:03:01;;;;;;;15.55;8.55;;;;;;;;;;5050991;28;20033;-67
2021/01/21 13:05:27;;;;;;;12.88;8.30;;;;;;;;;;5043675;28;20096;-64
2021/01/21 13:07:53;;;;;;;15.00;8.75;;;;;;;;;;5039902;28;20445;-68
2021/01/21 13:10:20;;;;;;;15.07;8.25;;;;;;;;;;5034636;28;20103;-66
2021/01/21 13:12:46;;;;;;;18.23;9.70;;;;;;;;;;5034461;28;20469;-66
2021/01/21 13:15:12;;;;;;;12.73;7.60;;;;;;;;;;5031967;28;20068;-65
2021/01/21 13:17:41;;;;;;;15.27;8.70;;;;;;;;;;5033073;28;20021;-67
2021/01/21 13:20:08;;;;;;;16.02;9.38;;;;;;;;;;5033343;28;20025;-66
2021/01/21 13:22:34;;;;;;;16.95;8.73;;;;;;;;;;5033004;28;20105;-65
2021/01/21 13:25:03;;;;;;;16.35;9.77;;;;;;;;;;5033671;28;20489;-66
2021/01/21 13:27:29;;;;;;;16.25;9.05;;;;;;;;;;5034606;28;20129;-67
2021/01/21 13:29:55;;;;;;;16.27;9.43;;;;;;;;;;5034719;28;20102;-65
2021/01/21 13:32:21;;;;;;;17.38;9.32;;;;;;;;;;5034478;28;20033;-65
2021/01/21 13:34:47;;;;;;;16.67;9.80;;;;;;;;;;5034594;28;20087;-66
2021/01/21 13:37:13;;;;;;;17.88;9.50;;;;;;;;;;5034107;28;20021;-65
2021/01/21 13:39:40;;;;;;;16.00;9.45;;;;;;;;;;5034661;28;20059;-66
2021/01/21 13:42:06;;;;;;;17.33;9.95;;;;;;;;;;5035929;28;20465;-66
2021/01/21 13:44:32;;;;;;;19.20;11.07;;;;;;;;;;5035481;28;20034;-65
2021/01/21 13:46:58;;;;;;;18.02;9.82;;;;;;;;;;5035663;28;20036;-66
2021/01/21 13:49:24;;;;;;;18.10;10.80;;;;;;;;;;5035601;28;20052;-65
2021/01/21 13:51:50;;;;;;;21.55;10.60;;;;;;;;;;5035541;28;20030;-67
2021/01/21 13:54:16;;;;;;;19.42;10.68;;;;;;;;;;5035423;28;20481;-67
2021/01/21 13:56:42;;;;;;;18.08;9.70;;;;;;;;;;5035025;28;20037;-66
2021/01/21 13:59:08;;;;;;;18.15;10.52;;;;;;;;;;5034245;28;20013;-64
2021/01/21 14:01:37;;;;;;;20.25;10.60;;;;;;;;;;5033928;28;20108;-65
2021/01/21 14:04:06;;;;;;;20.60;11.45;;;;;;;;;;5033692;28;20075;-66
2021/01/21 14:06:32;;;;;;;23.55;12.45;;;;;;;;;;5034365;28;20118;-65
2021/01/21 14:09:00;;;;;;;19.38;10.98;;;;;;;;;;5033591;28;20041;-67
2021/01/21 14:11:27;;;;;;;23.58;11.43;;;;;;;;;;5034256;28;20020;-66
2021/01/21 14:13:53;;;;;;;18.15;10.52;;;;;;;;;;5034993;28;20029;-65
2021/01/21 14:16:20;;;;;;;20.55;10.75;;;;;;;;;;5035036;28;20029;-64
2021/01/21 14:18:46;;;;;;;20.33;10.57;;;;;;;;;;5034192;28;20021;-66
2021/01/21 14:21:12;;;;;;;20.17;11.18;;;;;;;;;;5035256;28;20026;-64
2021/01/21 14:23:38;;;;;;;19.67;11.13;;;;;;;;;;5034199;28;20028;-65
2021/01/21 14:26:04;;;;;;;21.23;12.55;;;;;;;;;;5036689;28;20033;-65